createdAt,value
2023-06-21T00:03:14.551Z,22.25
2023-06-21T00:13:17.689Z,22.16
2023-06-21T00:23:20.645Z,21.96
2023-06-21T00:33:23.553Z,21.79
2023-06-21T00:43:26.499Z,21.63
2023-06-21T00:53:31.449Z,21.51
2023-06-21T01:03:35.661Z,21.42
2023-06-21T01:13:51.479Z,21.35
2023-06-21T01:24:10.580Z,21.25
2023-06-21T01:34:14.081Z,21.17
2023-06-21T01:44:17.215Z,21.09
2023-06-21T01:54:22.997Z,20.96
2023-06-21T02:04:28.998Z,20.84
2023-06-21T02:14:32.155Z,20.74
2023-06-21T02:24:35.341Z,20.66
2023-06-21T02:34:38.791Z,20.57
2023-06-21T02:44:42.212Z,20.49
2023-06-21T02:54:45.156Z,20.40
2023-06-21T03:04:48.178Z,20.42
2023-06-21T03:14:51.447Z,20.55
2023-06-21T03:24:54.406Z,20.84
2023-06-21T03:34:59.620Z,21.51
2023-06-21T03:45:03.292Z,21.84
2023-06-21T03:55:09.061Z,22.39
2023-06-21T04:05:12.034Z,22.61
2023-06-21T04:15:16.608Z,22.11
2023-06-21T04:25:20.011Z,21.66
2023-06-21T04:35:23.186Z,21.36
2023-06-21T04:45:26.891Z,21.19
2023-06-21T04:55:30.678Z,21.18
2023-06-21T05:05:35.065Z,21.10
2023-06-21T05:15:38.340Z,21.18
2023-06-21T05:25:41.347Z,21.45
2023-06-21T05:35:44.273Z,21.71
2023-06-21T05:45:47.290Z,22.07
2023-06-21T05:55:50.316Z,22.29
2023-06-21T06:05:54.214Z,22.79
2023-06-21T06:15:57.168Z,23.31
2023-06-21T06:26:00.100Z,23.58
2023-06-21T06:36:03.387Z,24.22
2023-06-21T06:46:06.360Z,24.62
2023-06-21T06:56:09.260Z,24.89
2023-06-21T07:06:12.285Z,25.21
2023-06-21T07:16:15.861Z,25.51
2023-06-21T07:26:18.874Z,26.33
2023-06-21T07:36:21.888Z,27.28
2023-06-21T07:46:24.928Z,28.47
2023-06-21T07:56:28.842Z,29.21
2023-06-21T08:06:31.812Z,29.04
2023-06-21T08:16:34.846Z,28.65
2023-06-21T08:26:38.193Z,28.45
2023-06-21T08:36:41.313Z,28.10
2023-06-21T08:46:47.826Z,27.97
2023-06-21T08:56:55.769Z,28.02
2023-06-21T09:06:59.243Z,28.20
2023-06-21T09:17:03.413Z,28.50
2023-06-21T09:27:07.060Z,28.80
2023-06-21T09:37:10.079Z,29.17
2023-06-21T09:47:14.045Z,29.35
2023-06-21T09:57:17.396Z,29.42
2023-06-21T10:07:21.265Z,29.30
2023-06-21T10:17:24.220Z,29.00
2023-06-21T10:27:28.497Z,28.74
2023-06-21T10:37:39.299Z,28.41
2023-06-21T10:47:42.653Z,28.38
2023-06-21T10:57:46.698Z,28.34
2023-06-21T11:07:54.925Z,28.08
2023-06-21T11:18:06.757Z,27.92
2023-06-21T11:28:27.409Z,28.05
2023-06-21T11:38:30.654Z,28.43
2023-06-21T11:48:39.869Z,28.77
2023-06-21T11:58:42.888Z,29.02
2023-06-21T12:08:45.777Z,29.30
2023-06-21T12:18:48.806Z,29.64
2023-06-21T12:28:51.783Z,29.64
2023-06-21T12:38:57.700Z,29.05
2023-06-21T12:49:00.761Z,28.99
2023-06-21T12:59:04.716Z,29.43
2023-06-21T13:09:09.004Z,29.37
2023-06-21T13:19:11.907Z,29.51
2023-06-21T13:29:14.983Z,29.44
2023-06-21T13:39:18.725Z,29.01
2023-06-21T13:49:22.122Z,28.36
2023-06-21T13:59:25.210Z,27.41
2023-06-21T14:09:29.349Z,26.67
2023-06-21T14:19:32.406Z,26.27
2023-06-21T14:29:35.412Z,26.21
2023-06-21T14:39:38.770Z,26.42
2023-06-21T14:49:41.698Z,27.09
2023-06-21T14:59:45.444Z,27.23
2023-06-21T15:09:48.453Z,27.34
2023-06-21T15:19:51.399Z,27.18
2023-06-21T15:29:54.398Z,26.79
2023-06-21T15:39:57.576Z,26.64
2023-06-21T15:50:01.915Z,26.57
2023-06-21T16:00:07.577Z,26.63
2023-06-21T16:10:10.718Z,27.01
2023-06-21T16:20:14.436Z,27.18
2023-06-21T16:30:17.619Z,26.98
2023-06-21T16:40:20.586Z,26.65
2023-06-21T16:50:23.563Z,26.17
2023-06-21T17:00:27.795Z,25.77
2023-06-21T17:10:30.821Z,25.57
2023-06-21T17:20:33.847Z,25.48
2023-06-21T17:30:36.767Z,25.35
2023-06-21T17:40:39.707Z,25.44
2023-06-21T17:50:42.886Z,25.63
2023-06-21T18:00:45.862Z,25.66
2023-06-21T18:10:49.006Z,25.50
2023-06-21T18:20:52.335Z,25.35
2023-06-21T18:30:55.867Z,25.04
2023-06-21T18:40:58.853Z,24.77
2023-06-21T18:51:01.969Z,24.39
2023-06-21T19:01:05.099Z,24.03
2023-06-21T19:11:08.122Z,23.72
2023-06-21T19:21:11.156Z,23.44
2023-06-21T19:31:14.714Z,23.25
2023-06-21T19:41:17.665Z,23.17
2023-06-21T19:51:21.208Z,23.09
2023-06-21T20:01:24.621Z,22.97
2023-06-21T20:11:27.773Z,22.84
2023-06-21T20:21:30.925Z,22.69
2023-06-21T20:31:37.005Z,22.60
2023-06-21T20:41:41.242Z,22.51
2023-06-21T20:51:44.219Z,22.42
2023-06-21T21:01:51.258Z,22.25
2023-06-21T21:11:54.327Z,22.05
2023-06-21T21:21:57.299Z,21.87
2023-06-21T21:32:02.771Z,21.91
2023-06-21T21:42:07.567Z,22.12
2023-06-21T21:52:10.580Z,22.22
2023-06-21T22:02:13.792Z,22.12
2023-06-21T22:12:17.071Z,22.02
2023-06-21T22:22:20.236Z,21.93
2023-06-21T22:32:23.626Z,21.83
2023-06-21T22:42:26.633Z,21.76
2023-06-21T22:52:29.644Z,21.55
2023-06-21T23:02:32.870Z,21.34
2023-06-21T23:12:38.917Z,21.30
2023-06-21T23:22:44.536Z,21.23
2023-06-21T23:32:47.960Z,20.94
2023-06-21T23:42:52.273Z,20.74
2023-06-21T23:52:55.316Z,20.50
